Nur fliegen ist schöner ....

Willkommen beim Flugservice Bautzen GmbH

Wir sind eine nach europäischen Richtlinien zugelassene Flugschule und lizenziertes Luftfahrtunternehmen. Bei uns können sie nicht nur Rundflüge über die Oberlausitz oder Sachsen buchen, sondern in unserer Flugschule selber das Fliegen erlernen. Erfahrene Fluglehrer stehen ihnen dabei zur Seite.

Wir bieten Ihnen außerdem spezielle Flüge zur Vermessung oder Fotoflüge für Luftbildaufnahmen an. In Zusammenarbeit mit dem Fallschirmsportclub Dresden und dem Cottbuser Fallschirmsportclub setzen wir am Flugplatz Bautzen und Neuhausen Fallschirmspringer ab.
Schauen sie sich in Ruhe bei uns um und wenn sie Fragen haben oder weitere Informationen benötigen, scheuen sie sich nicht Kontakt mit uns aufzunehmen.

Rundflüge können sie ganz leicht auch online in unserem Shop buchen.

Terminkalender

Letzter Monat Januar 2019 Nächster Monat
Mo Di Mi Do Fr Sa So
week 1 1 2 3 4 5 6
week 2 7 8 9 10 11 12 13
week 3 14 15 16 17 18 19 20
week 4 21 22 23 24 25 26 27
week 5 28 29 30 31

Flugwetterinfo

[Quelle: ADDS]
METAR
EDDC 181350Z 28005KT 240V310 9999 SCT026 M01/M05 Q1018 R04/29//95 NOSIG =
EDDC 181100Z 1812/1912 30010KT 9999 SCT020 BECMG 1814/1817 23005KT BECMG 1900/1903 16005KT
TAF
EDDC 181100Z 1812/1912 30010KT 9999 SCT020 BECMG 1814/1817 23005KT BECMG 1900/1903 16005KT =
SR / SS: 06:56 / 15:27 UTC (EDAB Flugplatz Bautzen 2019-01-18)
Flugservice Bautzen GmbH, Kornmarkt 34, 02625 Bautzen  Telefon: +49 (3591) 211105, Telefax: +49 (3591) 274512, E-Mail:  flugservice(at)fsbautzen.de